createdAt,value
2017-09-20T00:01:00.724Z,91.80
2017-09-20T00:03:28.321Z,92.20
2017-09-20T00:05:57.776Z,92.00
2017-09-20T00:08:25.434Z,92.00
2017-09-20T00:10:53.001Z,92.00
2017-09-20T00:13:20.577Z,92.20
2017-09-20T00:15:48.173Z,92.50
2017-09-20T00:18:16.504Z,92.50
2017-09-20T00:20:44.095Z,92.50
2017-09-20T00:23:11.661Z,92.60
2017-09-20T00:25:39.256Z,92.60
2017-09-20T00:28:06.819Z,92.70
2017-09-20T00:30:34.545Z,92.80
2017-09-20T00:33:02.108Z,92.80
2017-09-20T00:35:29.677Z,92.70
2017-09-20T00:37:59.581Z,92.70
2017-09-20T00:40:27.153Z,92.60
2017-09-20T00:42:56.436Z,92.60
2017-09-20T00:45:24.051Z,92.60
2017-09-20T00:47:51.673Z,92.70
2017-09-20T00:50:20.004Z,92.60
2017-09-20T00:52:47.568Z,92.90
2017-09-20T00:55:15.152Z,92.60
2017-09-20T00:57:42.720Z,92.60
2017-09-20T01:00:10.321Z,92.70
2017-09-20T01:02:37.893Z,92.80
2017-09-20T01:05:05.488Z,92.50
2017-09-20T01:07:33.075Z,92.80
2017-09-20T01:10:00.661Z,92.80
2017-09-20T01:12:28.252Z,92.60
2017-09-20T01:14:58.198Z,92.60
2017-09-20T01:17:26.236Z,92.60
2017-09-20T01:19:53.948Z,92.50
2017-09-20T01:22:33.742Z,92.70
2017-09-20T01:25:01.615Z,92.60
2017-09-20T01:27:29.237Z,92.50
2017-09-20T01:29:57.133Z,92.60
2017-09-20T01:32:24.728Z,92.60
2017-09-20T01:34:52.296Z,92.80
2017-09-20T01:37:19.888Z,93.00
2017-09-20T01:39:48.219Z,92.90
2017-09-20T01:42:15.833Z,92.80
2017-09-20T01:44:44.165Z,92.90
2017-09-20T01:47:11.748Z,92.90
2017-09-20T01:49:39.340Z,93.00
2017-09-20T01:52:06.916Z,92.80
2017-09-20T01:54:34.500Z,92.90
2017-09-20T01:57:02.065Z,93.00
2017-09-20T01:59:29.748Z,92.80
2017-09-20T02:01:59.025Z,92.70
2017-09-20T02:04:26.728Z,92.60
2017-09-20T02:06:55.988Z,92.70
2017-09-20T02:09:23.554Z,92.70
2017-09-20T02:11:51.155Z,93.10
2017-09-20T02:14:19.500Z,93.10
2017-09-20T02:16:47.094Z,93.00
2017-09-20T02:19:15.440Z,92.80
2017-09-20T02:21:43.024Z,92.80
2017-09-20T02:24:10.604Z,92.80
2017-09-20T02:26:38.239Z,92.70
2017-09-20T02:29:05.912Z,92.60
2017-09-20T02:31:33.499Z,92.80
2017-09-20T02:34:01.063Z,92.80
2017-09-20T02:36:28.685Z,92.90
2017-09-20T02:38:58.789Z,93.10
2017-09-20T02:41:26.520Z,93.10
2017-09-20T02:43:54.092Z,93.10
2017-09-20T02:46:21.652Z,93.10
2017-09-20T02:48:49.244Z,93.20
2017-09-20T02:51:18.356Z,93.40
2017-09-20T02:53:46.720Z,93.40
2017-09-20T02:56:14.280Z,93.40
2017-09-20T02:58:41.892Z,93.40
2017-09-20T03:01:09.466Z,93.50
2017-09-20T03:03:37.032Z,93.50
2017-09-20T03:06:04.916Z,93.70
2017-09-20T03:08:32.504Z,93.70
2017-09-20T03:11:00.101Z,93.80
2017-09-20T03:13:27.728Z,93.80
2017-09-20T03:15:56.808Z,94.00
2017-09-20T03:18:24.372Z,94.00
2017-09-20T03:20:54.939Z,94.00
2017-09-20T03:23:23.294Z,94.30
2017-09-20T03:25:50.889Z,94.30
2017-09-20T03:28:18.459Z,94.60
2017-09-20T03:30:46.060Z,95.00
2017-09-20T03:33:13.651Z,95.10
2017-09-20T03:35:42.455Z,95.90
2017-09-20T03:38:10.024Z,95.90
2017-09-20T03:40:37.592Z,96.30
2017-09-20T03:43:05.397Z,97.00
2017-09-20T03:45:32.972Z,97.50
2017-09-20T03:48:00.550Z,97.90
2017-09-20T03:50:28.911Z,98.50
2017-09-20T03:52:58.831Z,98.70
2017-09-20T03:55:27.195Z,98.80
2017-09-20T03:57:54.756Z,98.80
2017-09-20T04:00:22.347Z,99.00
2017-09-20T04:02:50.684Z,99.10
2017-09-20T04:05:18.276Z,99.10
2017-09-20T04:07:46.615Z,99.50
2017-09-20T04:10:14.220Z,99.40
2017-09-20T04:12:42.557Z,99.70
2017-09-20T04:15:10.153Z,99.70
2017-09-20T04:17:38.499Z,99.80
2017-09-20T04:20:06.116Z,99.70
2017-09-20T04:22:34.452Z,99.80
2017-09-20T04:25:02.024Z,99.80
2017-09-20T04:27:29.625Z,99.80
2017-09-20T04:29:58.740Z,99.80
2017-09-20T04:32:26.452Z,99.80
2017-09-20T04:34:54.029Z,99.90
2017-09-20T04:37:22.372Z,99.90
2017-09-20T04:39:49.964Z,99.90
2017-09-20T04:42:18.305Z,99.90
2017-09-20T04:44:45.917Z,99.90
2017-09-20T04:47:14.270Z,99.90
2017-09-20T04:49:41.848Z,99.90
2017-09-20T04:52:10.204Z,99.90
2017-09-20T04:54:37.796Z,99.90
2017-09-20T04:57:05.432Z,99.90
2017-09-20T04:59:34.532Z,99.90
2017-09-20T05:02:03.608Z,99.90
2017-09-20T05:04:31.210Z,99.90
2017-09-20T05:06:59.740Z,99.90
2017-09-20T05:09:27.332Z,99.90
2017-09-20T05:11:54.900Z,99.80
2017-09-20T05:14:23.256Z,99.40
2017-09-20T05:16:50.824Z,99.40
2017-09-20T05:19:18.597Z,99.40
2017-09-20T05:21:46.945Z,98.90
2017-09-20T05:24:14.516Z,98.90
2017-09-20T05:26:42.116Z,98.80
2017-09-20T05:29:10.576Z,99.00
2017-09-20T05:31:38.148Z,98.60
2017-09-20T05:34:06.681Z,98.40
2017-09-20T05:36:34.490Z,98.30
2017-09-20T05:39:02.141Z,98.30
2017-09-20T05:41:29.712Z,98.30
2017-09-20T05:43:59.528Z,98.30
2017-09-20T05:46:27.120Z,98.40
2017-09-20T05:48:54.689Z,98.40
2017-09-20T05:51:22.289Z,98.30
2017-09-20T05:53:49.856Z,98.20
2017-09-20T05:56:19.068Z,98.20
2017-09-20T05:58:46.641Z,98.20
2017-09-20T06:01:14.976Z,98.30
2017-09-20T06:03:42.571Z,98.30
2017-09-20T06:06:10.169Z,98.30
2017-09-20T06:08:37.768Z,98.20
2017-09-20T06:11:05.341Z,98.20
2017-09-20T06:13:32.952Z,98.20
2017-09-20T06:16:00.522Z,98.20
2017-09-20T06:18:28.089Z,98.20
2017-09-20T06:20:55.968Z,98.10
2017-09-20T06:23:23.544Z,97.90
2017-09-20T06:25:51.136Z,97.80
2017-09-20T06:28:19.469Z,97.70
2017-09-20T06:30:47.064Z,97.70
2017-09-20T06:33:14.636Z,97.50
2017-09-20T06:35:43.200Z,97.70
2017-09-20T06:38:10.769Z,97.70
2017-09-20T06:40:38.332Z,96.90
2017-09-20T06:43:06.696Z,96.20
2017-09-20T06:45:34.648Z,96.20
2017-09-20T06:48:02.242Z,95.80
2017-09-20T06:50:30.584Z,94.40
2017-09-20T06:52:59.716Z,94.40
2017-09-20T06:55:27.291Z,94.40
2017-09-20T06:57:56.572Z,94.00
2017-09-20T07:00:24.145Z,94.00
2017-09-20T07:02:52.529Z,93.90
2017-09-20T07:05:20.870Z,94.50
2017-09-20T07:07:48.456Z,94.50
2017-09-20T07:10:16.107Z,94.00
2017-09-20T07:12:43.688Z,94.00
2017-09-20T07:15:12.058Z,93.80
2017-09-20T07:17:40.408Z,94.10
2017-09-20T07:20:08.004Z,94.10
2017-09-20T07:22:36.352Z,93.60
2017-09-20T07:25:04.136Z,93.60
2017-09-20T07:27:31.716Z,93.50
2017-09-20T07:30:00.052Z,93.80
2017-09-20T07:32:27.644Z,93.80
2017-09-20T07:34:56.136Z,94.00
2017-09-20T07:37:24.514Z,94.00
2017-09-20T07:39:52.852Z,94.10
2017-09-20T07:42:20.424Z,94.10
2017-09-20T07:44:48.016Z,94.10
2017-09-20T07:47:16.357Z,94.00
2017-09-20T07:49:43.951Z,94.00
2017-09-20T07:52:12.292Z,93.90
2017-09-20T07:54:39.984Z,93.80
2017-09-20T07:57:07.561Z,93.60
2017-09-20T07:59:35.921Z,93.10
2017-09-20T08:02:03.497Z,93.10
2017-09-20T08:04:31.859Z,92.90
2017-09-20T08:06:59.432Z,92.90
2017-09-20T08:09:28.005Z,90.90
2017-09-20T08:11:57.080Z,90.90
2017-09-20T08:14:24.690Z,83.10
2017-09-20T08:16:52.284Z,80.90
2017-09-20T08:19:19.889Z,76.40
2017-09-20T08:21:48.248Z,70.80
2017-09-20T08:24:15.820Z,70.50
2017-09-20T08:26:44.204Z,61.30
2017-09-20T08:29:11.776Z,61.30
2017-09-20T08:31:40.148Z,55.80
2017-09-20T08:34:07.724Z,55.70
2017-09-20T08:36:36.095Z,53.10
2017-09-20T08:39:04.432Z,55.40
2017-09-20T08:41:32.008Z,55.40
2017-09-20T08:43:59.599Z,54.30
2017-09-20T08:46:27.941Z,55.20
2017-09-20T08:48:57.668Z,52.60
2017-09-20T08:51:26.016Z,49.50
2017-09-20T08:53:53.627Z,49.40
2017-09-20T08:56:21.972Z,45.50
2017-09-20T08:58:49.940Z,45.50
2017-09-20T09:01:17.543Z,46.00
2017-09-20T09:03:45.880Z,52.30
2017-09-20T09:06:13.492Z,52.30
2017-09-20T09:08:41.069Z,56.20
2017-09-20T09:11:08.648Z,59.00
2017-09-20T09:13:36.240Z,61.00
2017-09-20T09:16:03.808Z,61.30
2017-09-20T09:18:32.164Z,51.00
2017-09-20T09:20:59.728Z,50.90
2017-09-20T09:23:27.332Z,47.60
2017-09-20T09:25:56.583Z,41.00
2017-09-20T09:28:24.172Z,40.80
2017-09-20T09:30:51.736Z,36.60
2017-09-20T09:33:20.091Z,34.50
2017-09-20T09:35:47.664Z,34.50
2017-09-20T09:38:15.332Z,36.00
2017-09-20T09:40:42.992Z,33.40
2017-09-20T09:43:10.592Z,34.90
2017-09-20T09:45:38.209Z,36.00
2017-09-20T09:48:05.816Z,38.80
2017-09-20T09:50:33.415Z,39.10
2017-09-20T09:53:01.106Z,42.80
2017-09-20T09:55:28.705Z,43.80
2017-09-20T09:57:58.236Z,45.60
2017-09-20T10:00:26.648Z,45.30
2017-09-20T10:02:54.213Z,45.30
2017-09-20T10:05:22.575Z,52.30
2017-09-20T10:07:50.136Z,52.00
2017-09-20T10:10:18.811Z,64.50
2017-09-20T10:12:46.381Z,64.40
2017-09-20T10:15:13.972Z,69.10
2017-09-20T10:17:42.305Z,66.50
2017-09-20T10:20:09.892Z,66.50
2017-09-20T10:22:38.229Z,65.30
2017-09-20T10:25:05.820Z,65.40
2017-09-20T10:27:33.386Z,67.90
2017-09-20T10:30:00.984Z,68.60
2017-09-20T10:32:29.312Z,65.40
2017-09-20T10:34:57.011Z,65.40
2017-09-20T10:37:25.368Z,64.50
2017-09-20T10:39:54.441Z,64.40
2017-09-20T10:42:22.057Z,64.50
2017-09-20T10:44:50.393Z,50.30
2017-09-20T10:47:17.984Z,50.00
2017-09-20T10:49:45.606Z,44.70
2017-09-20T10:52:13.201Z,44.70
2017-09-20T10:54:40.784Z,46.80
2017-09-20T10:57:09.240Z,50.30
2017-09-20T10:59:36.895Z,50.30
2017-09-20T11:02:04.564Z,50.90
2017-09-20T11:04:32.130Z,53.20
2017-09-20T11:06:59.720Z,53.00
2017-09-20T11:09:27.636Z,55.00
2017-09-20T11:11:56.124Z,55.00
2017-09-20T11:14:23.758Z,55.90
2017-09-20T11:16:51.328Z,50.60
2017-09-20T11:19:18.915Z,40.60
2017-09-20T11:21:46.476Z,38.80
2017-09-20T11:24:14.072Z,40.40
2017-09-20T11:26:41.636Z,38.50
2017-09-20T11:29:09.248Z,37.60
2017-09-20T11:31:36.811Z,39.80
2017-09-20T11:34:04.371Z,41.50
2017-09-20T11:36:32.286Z,42.90
2017-09-20T11:38:59.911Z,38.00
2017-09-20T11:41:28.244Z,30.20
2017-09-20T11:43:57.784Z,27.30
2017-09-20T11:46:25.481Z,27.20
2017-09-20T11:48:53.817Z,24.40
2017-09-20T11:51:21.504Z,24.40
2017-09-20T11:53:49.164Z,24.60
2017-09-20T11:56:16.775Z,25.30
2017-09-20T11:58:44.388Z,28.40
2017-09-20T12:01:11.957Z,32.40
2017-09-20T12:03:40.331Z,39.30
2017-09-20T12:06:07.899Z,38.50
2017-09-20T12:08:35.488Z,41.50
2017-09-20T12:11:03.064Z,42.40
2017-09-20T12:13:30.656Z,44.40
2017-09-20T12:15:58.954Z,44.80
2017-09-20T12:18:26.548Z,44.70
2017-09-20T12:20:54.108Z,42.50
2017-09-20T12:23:21.719Z,42.10
2017-09-20T12:25:49.291Z,39.90
2017-09-20T12:28:16.956Z,42.00
2017-09-20T12:30:44.621Z,43.50
2017-09-20T12:33:12.280Z,43.60
2017-09-20T12:35:39.940Z,44.00
2017-09-20T12:38:07.495Z,44.80
2017-09-20T12:40:35.080Z,43.80
2017-09-20T12:43:03.439Z,43.70
2017-09-20T12:45:31.025Z,43.70
2017-09-20T12:47:58.983Z,43.30
2017-09-20T12:50:26.637Z,44.20
2017-09-20T12:52:54.215Z,40.80
2017-09-20T12:55:22.544Z,41.10
2017-09-20T12:57:50.123Z,41.10
2017-09-20T13:00:17.679Z,39.70
2017-09-20T13:02:45.363Z,39.30
2017-09-20T13:05:12.925Z,38.70
2017-09-20T13:07:41.296Z,38.80
2017-09-20T13:10:08.859Z,38.80
2017-09-20T13:12:36.441Z,35.70
2017-09-20T13:15:05.085Z,36.60
2017-09-20T13:17:32.668Z,36.70
2017-09-20T13:20:00.239Z,37.20
2017-09-20T13:22:28.603Z,40.70
2017-09-20T13:24:57.079Z,40.70
2017-09-20T13:27:24.747Z,40.70
2017-09-20T13:29:52.303Z,40.60
2017-09-20T13:32:19.864Z,43.20
2017-09-20T13:34:47.524Z,45.70
2017-09-20T13:37:15.095Z,48.00
2017-09-20T13:39:42.671Z,48.30
2017-09-20T13:42:10.999Z,50.00
2017-09-20T13:44:38.576Z,50.00
2017-09-20T13:47:06.127Z,51.50
2017-09-20T13:49:33.817Z,52.60
2017-09-20T13:52:01.379Z,51.40
2017-09-20T13:54:29.031Z,51.00
2017-09-20T13:56:57.893Z,48.10
2017-09-20T13:59:25.463Z,48.00
2017-09-20T14:01:53.047Z,47.70
2017-09-20T14:04:20.607Z,50.60
2017-09-20T14:06:48.271Z,51.80
2017-09-20T14:09:15.835Z,53.50
2017-09-20T14:11:44.411Z,54.80
2017-09-20T14:14:11.987Z,56.70
2017-09-20T14:16:39.580Z,56.50
2017-09-20T14:19:07.142Z,57.40
2017-09-20T14:21:34.697Z,57.60
2017-09-20T14:24:02.287Z,58.00
2017-09-20T14:26:29.888Z,58.30
2017-09-20T14:28:58.918Z,58.70
2017-09-20T14:31:26.471Z,57.40
2017-09-20T14:33:55.019Z,57.00
2017-09-20T14:36:22.576Z,57.00
2017-09-20T14:38:50.136Z,58.20
2017-09-20T14:41:17.724Z,59.90
2017-09-20T14:43:46.052Z,58.70
2017-09-20T14:46:13.647Z,58.70
2017-09-20T14:48:41.207Z,59.90
2017-09-20T14:51:09.103Z,61.30
2017-09-20T14:53:37.448Z,62.60
2017-09-20T14:56:05.012Z,62.60
2017-09-20T14:58:32.597Z,61.40
2017-09-20T15:01:00.923Z,59.70
2017-09-20T15:03:28.611Z,59.70
2017-09-20T15:05:57.924Z,58.70
2017-09-20T15:08:26.491Z,59.70
2017-09-20T15:10:54.047Z,59.50
2017-09-20T15:13:21.608Z,59.80
2017-09-20T15:15:49.186Z,60.00
2017-09-20T15:18:16.748Z,61.40
2017-09-20T15:20:44.741Z,62.10
2017-09-20T15:23:13.072Z,63.50
2017-09-20T15:25:40.660Z,63.30
2017-09-20T15:28:08.218Z,64.60
2017-09-20T15:30:35.807Z,65.10
2017-09-20T15:33:03.372Z,64.80
2017-09-20T15:35:31.199Z,65.70
2017-09-20T15:37:58.983Z,67.10
2017-09-20T15:40:27.308Z,66.80
2017-09-20T15:42:54.897Z,66.80
2017-09-20T15:45:22.452Z,67.10
2017-09-20T15:47:50.041Z,67.80
2017-09-20T15:50:18.369Z,68.10
2017-09-20T15:52:45.950Z,68.00
2017-09-20T15:55:13.519Z,68.70
2017-09-20T15:57:41.184Z,69.80
2017-09-20T16:00:08.739Z,70.70
2017-09-20T16:02:36.407Z,71.00
2017-09-20T16:05:03.987Z,72.00
2017-09-20T16:07:32.310Z,73.60
2017-09-20T16:09:59.894Z,73.50
2017-09-20T16:12:27.461Z,73.50
2017-09-20T16:14:56.736Z,75.50
2017-09-20T16:17:24.300Z,75.50
2017-09-20T16:19:52.091Z,73.00
2017-09-20T16:22:19.651Z,73.70
2017-09-20T16:24:47.206Z,74.50
2017-09-20T16:27:14.798Z,74.40
2017-09-20T16:29:43.124Z,75.00
2017-09-20T16:32:10.715Z,75.00
2017-09-20T16:34:38.270Z,75.00
2017-09-20T16:37:07.475Z,76.30
2017-09-20T16:39:35.044Z,76.20
2017-09-20T16:42:03.368Z,76.30
2017-09-20T16:44:30.958Z,76.40
2017-09-20T16:46:59.968Z,76.60
2017-09-20T16:49:27.572Z,76.50
2017-09-20T16:51:56.053Z,77.00
2017-09-20T16:54:23.646Z,77.50
2017-09-20T16:56:51.207Z,78.40
2017-09-20T16:59:18.803Z,78.00
2017-09-20T17:01:46.360Z,78.60
2017-09-20T17:04:14.724Z,78.40
2017-09-20T17:06:42.291Z,78.30
2017-09-20T17:09:09.852Z,78.60
2017-09-20T17:11:37.515Z,78.90
2017-09-20T17:14:05.092Z,79.00
2017-09-20T17:16:33.444Z,79.80
2017-09-20T17:19:01.031Z,79.70
2017-09-20T17:21:29.395Z,80.40
2017-09-20T17:23:58.760Z,80.40
2017-09-20T17:26:26.359Z,80.40
2017-09-20T17:28:53.948Z,80.50
2017-09-20T17:31:22.274Z,81.10
2017-09-20T17:33:49.876Z,81.10
2017-09-20T17:36:18.202Z,81.40
2017-09-20T17:38:46.039Z,81.20
2017-09-20T17:41:13.767Z,81.70
2017-09-20T17:43:41.395Z,82.20
2017-09-20T17:46:09.063Z,82.50
2017-09-20T17:48:36.623Z,82.80
2017-09-20T17:51:05.228Z,83.10
2017-09-20T17:53:32.812Z,83.40
2017-09-20T17:56:00.375Z,83.70
2017-09-20T17:58:28.820Z,85.20
2017-09-20T18:00:58.829Z,84.90
2017-09-20T18:03:26.415Z,84.30
2017-09-20T18:05:53.979Z,84.60
2017-09-20T18:08:21.613Z,84.90
2017-09-20T18:10:49.171Z,85.30
2017-09-20T18:13:17.120Z,85.60
2017-09-20T18:15:44.732Z,85.70
2017-09-20T18:18:12.295Z,85.90
2017-09-20T18:20:40.054Z,86.20
2017-09-20T18:23:07.619Z,86.40
2017-09-20T18:25:35.188Z,86.50
2017-09-20T18:28:02.783Z,86.60
2017-09-20T18:30:30.348Z,86.60
2017-09-20T18:32:59.704Z,87.00
2017-09-20T18:35:27.808Z,87.00
2017-09-20T18:37:56.203Z,87.20
2017-09-20T18:40:23.815Z,87.90
2017-09-20T18:42:52.201Z,87.60
2017-09-20T18:45:19.765Z,87.60
2017-09-20T18:47:47.456Z,87.90
2017-09-20T18:50:15.019Z,88.10
2017-09-20T18:52:42.638Z,88.50
2017-09-20T18:55:10.280Z,88.90
2017-09-20T18:57:37.933Z,89.10
2017-09-20T19:00:05.568Z,89.50
2017-09-20T19:02:33.192Z,89.80
2017-09-20T19:05:02.693Z,90.20
2017-09-20T19:07:30.427Z,90.20
2017-09-20T19:09:59.203Z,90.20
2017-09-20T19:12:26.886Z,90.20
2017-09-20T19:14:54.504Z,90.20
2017-09-20T19:17:22.840Z,90.30
2017-09-20T19:19:50.424Z,90.20
2017-09-20T19:22:18.034Z,90.10
2017-09-20T19:24:45.624Z,90.10
2017-09-20T19:27:13.191Z,90.10
2017-09-20T19:29:42.292Z,90.40
2017-09-20T19:32:09.911Z,90.30
2017-09-20T19:34:37.517Z,90.40
2017-09-20T19:37:05.178Z,90.60
2017-09-20T19:39:32.852Z,90.70
2017-09-20T19:42:02.864Z,90.80
2017-09-20T19:44:30.465Z,90.80
2017-09-20T19:46:58.088Z,90.80
2017-09-20T19:49:25.847Z,91.00
2017-09-20T19:51:53.415Z,90.90
2017-09-20T19:54:21.047Z,90.80
2017-09-20T19:56:48.635Z,90.80
2017-09-20T19:59:16.255Z,90.80
2017-09-20T20:01:43.903Z,90.70
2017-09-20T20:04:11.518Z,90.70
2017-09-20T20:06:39.170Z,90.70
2017-09-20T20:09:06.917Z,90.60
2017-09-20T20:11:34.806Z,90.60
2017-09-20T20:14:02.672Z,90.50
2017-09-20T20:16:30.540Z,90.50
2017-09-20T20:18:59.329Z,90.50
2017-09-20T20:21:27.271Z,90.50
2017-09-20T20:23:55.044Z,90.50
2017-09-20T20:26:22.676Z,90.50
2017-09-20T20:28:50.491Z,90.50
2017-09-20T20:31:18.359Z,90.50
2017-09-20T20:33:46.226Z,90.50
2017-09-20T20:36:14.093Z,90.60
2017-09-20T20:38:41.961Z,90.70
2017-09-20T20:41:10.035Z,90.70
2017-09-20T20:43:37.900Z,90.80
2017-09-20T20:46:05.768Z,90.80
2017-09-20T20:48:33.411Z,90.90
2017-09-20T20:51:03.119Z,91.00
2017-09-20T20:53:30.759Z,91.00
2017-09-20T20:55:59.445Z,91.10
2017-09-20T20:58:27.088Z,91.10
2017-09-20T21:00:55.475Z,91.20
2017-09-20T21:03:23.152Z,91.20
2017-09-20T21:05:50.775Z,91.20
2017-09-20T21:08:18.482Z,91.20
2017-09-20T21:10:46.124Z,91.30
2017-09-20T21:13:13.747Z,91.40
2017-09-20T21:15:41.557Z,91.30
2017-09-20T21:18:09.244Z,91.40
2017-09-20T21:20:36.840Z,91.40
2017-09-20T21:23:04.460Z,91.40
2017-09-20T21:25:32.280Z,91.50
2017-09-20T21:28:01.461Z,91.40
2017-09-20T21:30:29.027Z,91.40
2017-09-20T21:32:56.757Z,91.40
2017-09-20T21:35:24.340Z,91.40
2017-09-20T21:37:51.987Z,91.40
2017-09-20T21:40:19.561Z,91.50
2017-09-20T21:42:47.160Z,91.60
2017-09-20T21:45:15.549Z,91.80
2017-09-20T21:47:43.920Z,91.90
2017-09-20T21:50:12.949Z,91.80
2017-09-20T21:52:40.521Z,91.80
2017-09-20T21:55:08.123Z,91.90
2017-09-20T21:57:35.883Z,91.90
2017-09-20T22:00:03.455Z,92.20
2017-09-20T22:02:31.796Z,92.20
2017-09-20T22:05:01.948Z,92.40
2017-09-20T22:07:29.525Z,92.40
2017-09-20T22:09:57.890Z,92.60
2017-09-20T22:12:25.460Z,92.80
2017-09-20T22:14:53.513Z,92.80
2017-09-20T22:17:32.927Z,92.70
2017-09-20T22:20:14.704Z,93.00
2017-09-20T22:22:54.224Z,93.00
2017-09-20T22:25:33.825Z,93.00
2017-09-20T22:28:02.812Z,93.20
2017-09-20T22:30:30.587Z,93.10
2017-09-20T22:32:59.178Z,93.20
2017-09-20T22:35:28.251Z,93.90
2017-09-20T22:37:55.837Z,93.90
2017-09-20T22:40:23.402Z,94.20
2017-09-20T22:42:51.971Z,95.10
2017-09-20T22:45:19.541Z,94.80
2017-09-20T22:47:48.618Z,95.00
2017-09-20T22:50:16.212Z,95.00
2017-09-20T22:52:44.781Z,95.10
2017-09-20T22:55:12.347Z,95.10
2017-09-20T22:57:40.000Z,95.00
2017-09-20T23:00:07.591Z,94.90
2017-09-20T23:02:35.947Z,94.70
2017-09-20T23:05:04.324Z,94.40
2017-09-20T23:07:33.404Z,94.10
2017-09-20T23:10:02.947Z,94.00
2017-09-20T23:12:31.289Z,94.00
2017-09-20T23:14:59.893Z,94.50
2017-09-20T23:17:28.233Z,94.60
2017-09-20T23:19:55.833Z,94.50
2017-09-20T23:22:24.196Z,93.70
2017-09-20T23:24:51.765Z,94.40
2017-09-20T23:27:19.363Z,94.00
2017-09-20T23:29:46.933Z,94.00
2017-09-20T23:32:14.524Z,94.40
2017-09-20T23:34:42.093Z,93.90
2017-09-20T23:37:09.774Z,93.90
2017-09-20T23:39:37.344Z,93.80
2017-09-20T23:42:05.680Z,93.70
2017-09-20T23:44:33.376Z,93.70
2017-09-20T23:47:02.764Z,93.80
2017-09-20T23:49:30.445Z,93.80
2017-09-20T23:51:59.748Z,93.70
2017-09-20T23:54:28.109Z,93.90
2017-09-20T23:56:55.715Z,93.90
2017-09-20T23:59:24.072Z,93.90
